createdAt,value
2022-11-13T00:01:13.238Z,102629.09
2022-11-13T00:03:42.763Z,102617.34
2022-11-13T00:06:13.045Z,102616.75
2022-11-13T00:08:42.857Z,102620.06
2022-11-13T00:11:18.481Z,102617.22
2022-11-13T00:13:48.269Z,102609.25
2022-11-13T00:16:20.567Z,102607.28
2022-11-13T00:18:50.675Z,102604.88
2022-11-13T00:21:22.214Z,102601.69
2022-11-13T00:23:51.984Z,102608.81
2022-11-13T00:26:25.946Z,102613.19
2022-11-13T00:28:56.623Z,102611.91
2022-11-13T00:31:26.082Z,102614.00
2022-11-13T00:34:14.004Z,102617.03
2022-11-13T00:36:45.105Z,102607.84
2022-11-13T00:39:14.509Z,102615.06
2022-11-13T00:41:46.564Z,102609.78
2022-11-13T00:44:15.976Z,102610.72
2022-11-13T00:46:45.397Z,102612.22
2022-11-13T00:49:16.422Z,102608.25
2022-11-13T00:51:46.255Z,102605.22
2022-11-13T00:54:15.655Z,102606.09
2022-11-13T00:56:47.665Z,102608.63
2022-11-13T00:59:17.026Z,102613.53
2022-11-13T01:01:46.496Z,102618.56
2022-11-13T01:04:15.979Z,102620.28
2022-11-13T01:06:45.419Z,102618.91
2022-11-13T01:09:14.823Z,102620.44
2022-11-13T01:11:46.970Z,102616.56
2022-11-13T01:14:16.343Z,102615.97
2022-11-13T01:16:46.004Z,102602.41
2022-11-13T01:19:16.528Z,102600.38
2022-11-13T01:21:46.016Z,102603.84
2022-11-13T01:24:15.391Z,102596.06
2022-11-13T01:26:47.364Z,102587.38
2022-11-13T01:29:16.759Z,102592.81
2022-11-13T01:31:46.156Z,102592.94
2022-11-13T01:34:15.540Z,102594.78
2022-11-13T01:36:44.941Z,102587.66
2022-11-13T01:39:14.440Z,102583.47
2022-11-13T01:41:43.884Z,102577.75
2022-11-13T01:44:19.654Z,102571.72
2022-11-13T01:46:50.381Z,102566.94
2022-11-13T01:49:30.150Z,102562.16
2022-11-13T01:52:03.715Z,102565.13
2022-11-13T01:54:35.214Z,102574.16
2022-11-13T01:57:05.984Z,102563.75
2022-11-13T01:59:41.474Z,102571.72
2022-11-13T02:02:11.077Z,102563.00
2022-11-13T02:04:40.503Z,102560.63
2022-11-13T02:07:11.525Z,102570.25
2022-11-13T02:09:43.352Z,102558.47
2022-11-13T02:12:15.059Z,102557.88
2022-11-13T02:14:50.124Z,102561.41
2022-11-13T02:17:22.683Z,102557.16
2022-11-13T02:19:55.757Z,102560.50
2022-11-13T02:22:30.894Z,102565.03
2022-11-13T02:25:03.308Z,102565.09
2022-11-13T02:27:35.444Z,102567.06
2022-11-13T02:30:16.266Z,102573.41
2022-11-13T02:33:04.217Z,102575.94
2022-11-13T02:35:35.909Z,102577.28
2022-11-13T02:38:07.468Z,102578.41
2022-11-13T02:40:39.582Z,102580.88
2022-11-13T02:43:09.032Z,102581.63
2022-11-13T02:45:38.649Z,102578.56
2022-11-13T02:48:09.253Z,102576.34
2022-11-13T02:50:40.040Z,102572.59
2022-11-13T02:53:09.529Z,102578.06
2022-11-13T02:55:41.601Z,102566.84
2022-11-13T02:58:11.080Z,102564.22
2022-11-13T03:00:40.464Z,102569.13
2022-11-13T03:03:09.833Z,102569.22
2022-11-13T03:05:39.224Z,102565.81
2022-11-13T03:08:09.458Z,102568.53
2022-11-13T03:10:41.461Z,102553.19
2022-11-13T03:13:10.836Z,102562.13
2022-11-13T03:15:40.249Z,102561.69
2022-11-13T03:18:11.271Z,102560.19
2022-11-13T03:20:41.913Z,102559.81
2022-11-13T03:23:11.377Z,102549.25
2022-11-13T03:25:43.483Z,102549.69
2022-11-13T03:28:13.168Z,102540.81
2022-11-13T03:30:42.606Z,102545.94
2022-11-13T03:33:12.014Z,102539.91
2022-11-13T03:35:46.521Z,102545.66
2022-11-13T03:38:16.536Z,102549.56
2022-11-13T03:40:48.548Z,102543.13
2022-11-13T03:43:18.208Z,102534.34
2022-11-13T03:45:48.863Z,102539.03
2022-11-13T03:48:19.151Z,102537.66
2022-11-13T03:50:50.313Z,102539.47
2022-11-13T03:53:19.742Z,102533.50
2022-11-13T03:55:51.729Z,102535.44
2022-11-13T03:58:21.665Z,102533.03
2022-11-13T04:00:51.236Z,102532.31
2022-11-13T04:03:20.676Z,102533.16
2022-11-13T04:05:50.821Z,102529.88
2022-11-13T04:08:21.279Z,102527.75
2022-11-13T04:10:53.319Z,102528.88
2022-11-13T04:13:22.717Z,102519.56
2022-11-13T04:15:52.145Z,102523.75
2022-11-13T04:18:21.957Z,102518.22
2022-11-13T04:20:51.385Z,102527.16
2022-11-13T04:23:20.740Z,102527.63
2022-11-13T04:25:53.955Z,102521.88
2022-11-13T04:28:23.481Z,102525.66
2022-11-13T04:30:52.924Z,102520.72
2022-11-13T04:33:22.319Z,102519.38
2022-11-13T04:35:52.021Z,102515.94
2022-11-13T04:38:21.480Z,102512.13
2022-11-13T04:41:15.052Z,102508.38
2022-11-13T04:43:41.845Z,102518.00
2022-11-13T04:46:11.479Z,102514.03
2022-11-13T04:48:40.886Z,102514.09
2022-11-13T04:51:10.275Z,102520.13
2022-11-13T04:53:39.720Z,102516.38
2022-11-13T04:56:11.871Z,102515.06
2022-11-13T04:58:41.291Z,102513.88
2022-11-13T05:01:10.742Z,102514.81
2022-11-13T05:03:40.341Z,102517.84
2022-11-13T05:06:11.534Z,102510.94
2022-11-13T05:08:41.048Z,102515.16
2022-11-13T05:11:13.039Z,102507.97
2022-11-13T05:13:42.446Z,102510.97
2022-11-13T05:16:13.640Z,102501.91
2022-11-13T05:18:43.380Z,102494.50
2022-11-13T05:21:12.983Z,102496.50
2022-11-13T05:23:42.417Z,102491.19
2022-11-13T05:26:15.729Z,102484.13
2022-11-13T05:28:45.191Z,102485.50
2022-11-13T05:31:15.928Z,102480.31
2022-11-13T05:33:46.041Z,102473.78
2022-11-13T05:36:17.761Z,102475.19
2022-11-13T05:38:47.803Z,102469.38
2022-11-13T05:41:21.401Z,102471.44
2022-11-13T05:43:55.013Z,102474.00
2022-11-13T05:46:28.932Z,102480.22
2022-11-13T05:48:59.625Z,102483.66
2022-11-13T05:51:30.769Z,102482.00
2022-11-13T05:54:00.432Z,102490.66
2022-11-13T05:56:33.864Z,102496.44
2022-11-13T05:59:03.851Z,102501.06
2022-11-13T06:01:35.088Z,102500.44
2022-11-13T06:04:05.223Z,102492.94
2022-11-13T06:06:35.149Z,102489.78
2022-11-13T06:09:06.492Z,102495.81
2022-11-13T06:11:38.711Z,102489.94
2022-11-13T06:14:08.107Z,102482.16
2022-11-13T06:16:39.765Z,102488.00
2022-11-13T06:19:10.896Z,102489.34
2022-11-13T06:21:41.790Z,102484.22
2022-11-13T06:24:13.507Z,102477.75
2022-11-13T06:26:45.537Z,102473.19
2022-11-13T06:29:15.491Z,102466.34
2022-11-13T06:31:45.068Z,102465.75
2022-11-13T06:34:14.493Z,102468.06
2022-11-13T06:36:43.870Z,102460.75
2022-11-13T06:39:13.515Z,102453.38
2022-11-13T06:41:45.701Z,102446.31
2022-11-13T06:44:15.083Z,102449.50
2022-11-13T06:46:44.445Z,102445.13
2022-11-13T06:49:13.803Z,102441.97
2022-11-13T06:51:43.201Z,102444.09
2022-11-13T06:54:12.571Z,102439.31
2022-11-13T06:56:45.545Z,102435.50
2022-11-13T06:59:17.612Z,102434.47
2022-11-13T07:01:47.002Z,102441.09
2022-11-13T07:04:16.481Z,102439.13
2022-11-13T07:06:45.900Z,102436.41
2022-11-13T07:09:15.345Z,102439.19
2022-11-13T07:11:44.769Z,102434.47
2022-11-13T07:14:16.853Z,102429.72
2022-11-13T07:17:08.049Z,102426.63
2022-11-13T07:19:35.660Z,102432.28
2022-11-13T07:22:05.032Z,102440.06
2022-11-13T07:24:34.396Z,102438.78
2022-11-13T07:27:03.829Z,102446.59
2022-11-13T07:29:36.287Z,102447.88
2022-11-13T07:32:05.692Z,102445.97
2022-11-13T07:34:35.090Z,102445.00
2022-11-13T07:37:06.504Z,102444.16
2022-11-13T07:39:36.012Z,102447.38
2022-11-13T07:42:05.396Z,102446.94
2022-11-13T07:44:54.213Z,102441.50
2022-11-13T07:47:24.278Z,102446.16
2022-11-13T07:49:58.007Z,102451.34
2022-11-13T07:52:33.259Z,102457.59
2022-11-13T07:55:02.675Z,102450.41
2022-11-13T07:57:32.051Z,102451.00
2022-11-13T08:00:04.096Z,102446.28
2022-11-13T08:02:33.609Z,102437.63
2022-11-13T08:05:03.092Z,102442.16
2022-11-13T08:07:32.474Z,102441.22
2022-11-13T08:10:01.897Z,102460.25
2022-11-13T08:12:31.267Z,102454.16
2022-11-13T08:15:00.734Z,102453.09
2022-11-13T08:17:32.844Z,102446.75
2022-11-13T08:20:02.310Z,102453.09
2022-11-13T08:22:32.793Z,102455.50
2022-11-13T08:25:02.201Z,102445.72
2022-11-13T08:27:31.616Z,102442.47
2022-11-13T08:30:01.024Z,102448.28
2022-11-13T08:32:33.145Z,102443.56
2022-11-13T08:35:02.514Z,102451.03
2022-11-13T08:37:31.902Z,102443.34
2022-11-13T08:40:01.409Z,102432.34
2022-11-13T08:42:30.923Z,102435.81
2022-11-13T08:45:00.432Z,102438.94
2022-11-13T08:47:30.535Z,102432.28
2022-11-13T08:50:02.634Z,102428.34
2022-11-13T08:52:32.085Z,102421.81
2022-11-13T08:55:01.519Z,102423.28
2022-11-13T08:57:31.061Z,102429.56
2022-11-13T09:00:01.723Z,102422.19
2022-11-13T09:02:31.389Z,102421.13
2022-11-13T09:05:03.362Z,102423.81
2022-11-13T09:07:32.799Z,102426.78
2022-11-13T09:10:02.352Z,102421.41
2022-11-13T09:12:31.892Z,102418.72
2022-11-13T09:15:01.290Z,102418.88
2022-11-13T09:17:30.779Z,102420.19
2022-11-13T09:20:07.766Z,102409.59
2022-11-13T09:22:39.385Z,102417.28
2022-11-13T09:25:10.017Z,102413.31
2022-11-13T09:27:39.519Z,102405.22
2022-11-13T09:30:10.431Z,102405.22
2022-11-13T09:32:39.895Z,102404.34
2022-11-13T09:35:12.609Z,102417.91
2022-11-13T09:37:42.036Z,102422.66
2022-11-13T09:40:15.519Z,102418.94
2022-11-13T09:42:45.009Z,102413.66
2022-11-13T09:45:17.023Z,102419.84
2022-11-13T09:47:47.553Z,102425.38
2022-11-13T09:50:20.959Z,102416.91
2022-11-13T09:52:52.094Z,102427.25
2022-11-13T09:55:26.159Z,102427.06
2022-11-13T09:58:00.787Z,102426.28
2022-11-13T10:00:31.452Z,102423.34
2022-11-13T10:03:46.090Z,102430.69
2022-11-13T10:06:21.400Z,102435.31
2022-11-13T10:08:54.861Z,102434.53
2022-11-13T10:11:30.773Z,102431.50
2022-11-13T10:14:03.905Z,102439.44
2022-11-13T10:16:36.452Z,102434.97
2022-11-13T10:19:14.121Z,102436.78
2022-11-13T10:21:54.816Z,102443.69
2022-11-13T10:24:30.984Z,102447.78
2022-11-13T10:27:01.694Z,102454.41
2022-11-13T10:29:32.352Z,102452.00
2022-11-13T10:32:01.977Z,102450.22
2022-11-13T10:34:33.227Z,102446.59
2022-11-13T10:37:22.168Z,102443.25
2022-11-13T10:39:51.556Z,102448.28
2022-11-13T10:42:25.922Z,102450.06
2022-11-13T10:44:57.879Z,102444.06
2022-11-13T10:48:01.945Z,102446.00
2022-11-13T10:50:24.971Z,102442.81
2022-11-13T10:52:58.196Z,102446.41
2022-11-13T10:55:32.377Z,102449.34
2022-11-13T10:58:04.234Z,102443.59
2022-11-13T11:00:35.891Z,102446.94
2022-11-13T11:03:05.394Z,102446.34
2022-11-13T11:05:34.905Z,102450.16
2022-11-13T11:08:11.898Z,102440.16
2022-11-13T11:11:02.734Z,102438.63
2022-11-13T11:13:29.651Z,102433.72
2022-11-13T11:16:01.457Z,102429.13
2022-11-13T11:18:33.283Z,102426.66
2022-11-13T11:21:05.260Z,102421.81
2022-11-13T11:23:42.585Z,102420.16
2022-11-13T11:26:17.389Z,102414.50
2022-11-13T11:28:49.605Z,102409.53
2022-11-13T11:31:23.532Z,102407.72
2022-11-13T11:33:56.176Z,102405.03
2022-11-13T11:36:31.578Z,102398.66
2022-11-13T11:39:09.305Z,102397.06
2022-11-13T11:41:43.728Z,102388.75
2022-11-13T11:44:19.793Z,102386.84
2022-11-13T11:46:49.256Z,102388.22
2022-11-13T11:49:18.819Z,102386.09
2022-11-13T11:51:55.651Z,102400.38
2022-11-13T11:54:34.810Z,102394.47
2022-11-13T11:57:13.785Z,102406.31
2022-11-13T11:59:59.452Z,102418.63
2022-11-13T12:02:51.428Z,102424.31
2022-11-13T12:05:26.152Z,102432.09
2022-11-13T12:08:05.689Z,102436.38
2022-11-13T12:10:43.069Z,102425.47
2022-11-13T12:13:20.728Z,102424.69
2022-11-13T12:15:52.741Z,102423.19
2022-11-13T12:18:30.783Z,102424.41
2022-11-13T12:21:08.586Z,102427.44
2022-11-13T12:23:47.644Z,102421.97
2022-11-13T12:26:24.362Z,102432.88
2022-11-13T12:29:00.637Z,102430.88
2022-11-13T12:31:41.754Z,102429.16
2022-11-13T12:34:28.244Z,102434.72
2022-11-13T12:36:57.989Z,102422.53
2022-11-13T12:39:36.947Z,102424.53
2022-11-13T12:42:16.349Z,102424.25
2022-11-13T12:44:50.803Z,102418.50
2022-11-13T12:47:23.177Z,102417.09
2022-11-13T12:50:02.513Z,102414.78
2022-11-13T12:52:32.077Z,102401.53
2022-11-13T12:55:10.372Z,102406.72
2022-11-13T12:57:49.993Z,102407.44
2022-11-13T13:00:28.876Z,102414.13
2022-11-13T13:03:10.508Z,102405.28
2022-11-13T13:06:00.453Z,102399.81
2022-11-13T13:08:42.799Z,102391.56
2022-11-13T13:11:19.723Z,102396.66
2022-11-13T13:13:58.043Z,102390.31
2022-11-13T13:16:29.752Z,102388.72
2022-11-13T13:19:10.030Z,102381.47
2022-11-13T13:21:44.461Z,102383.25
2022-11-13T13:24:38.813Z,102379.34
2022-11-13T13:27:24.321Z,102377.38
2022-11-13T13:29:56.387Z,102376.84
2022-11-13T13:32:30.773Z,102379.81
2022-11-13T13:35:07.329Z,102379.69
2022-11-13T13:37:43.171Z,102371.31
2022-11-13T13:40:19.500Z,102376.00
2022-11-13T13:42:58.257Z,102381.50
2022-11-13T13:45:38.109Z,102378.66
2022-11-13T13:48:12.336Z,102383.94
2022-11-13T13:50:43.993Z,102373.94
2022-11-13T13:53:15.166Z,102379.63
2022-11-13T13:55:48.543Z,102382.75
2022-11-13T13:58:20.039Z,102370.69
2022-11-13T14:01:20.585Z,102367.34
2022-11-13T14:03:50.019Z,102364.47
2022-11-13T14:06:23.859Z,102366.91
2022-11-13T14:08:53.334Z,102363.59
2022-11-13T14:11:26.851Z,102355.75
2022-11-13T14:13:56.347Z,102350.81
2022-11-13T14:16:28.379Z,102345.31
2022-11-13T14:19:06.186Z,102333.25
2022-11-13T14:21:35.864Z,102331.25
2022-11-13T14:24:05.506Z,102326.41
2022-11-13T14:26:35.004Z,102330.94
2022-11-13T14:29:05.615Z,102327.72
2022-11-13T14:31:38.274Z,102324.75
2022-11-13T14:34:12.600Z,102326.38
2022-11-13T14:36:42.496Z,102307.31
2022-11-13T14:39:20.775Z,102311.78
2022-11-13T14:41:52.833Z,102315.81
2022-11-13T14:44:31.966Z,102311.28
2022-11-13T14:47:06.432Z,102309.97
2022-11-13T14:49:38.287Z,102308.06
2022-11-13T14:52:07.924Z,102307.13
2022-11-13T14:55:14.051Z,102299.09
2022-11-13T14:57:27.951Z,102300.25
2022-11-13T14:59:57.465Z,102302.13
2022-11-13T15:02:29.528Z,102303.94
2022-11-13T15:04:59.042Z,102297.81
2022-11-13T15:07:31.907Z,102293.44
2022-11-13T15:10:02.045Z,102292.19
2022-11-13T15:12:31.554Z,102296.63
2022-11-13T15:15:01.042Z,102292.19
2022-11-13T15:17:33.485Z,102292.38
2022-11-13T15:20:09.268Z,102292.47
2022-11-13T15:22:39.528Z,102281.72
2022-11-13T15:25:15.774Z,102283.03
2022-11-13T15:27:45.278Z,102278.13
2022-11-13T15:30:15.496Z,102268.41
2022-11-13T15:32:49.254Z,102261.34
2022-11-13T15:35:20.667Z,102252.72
2022-11-13T15:37:50.170Z,102244.69
2022-11-13T15:40:20.329Z,102241.38
2022-11-13T15:42:49.801Z,102231.31
2022-11-13T15:45:20.099Z,102233.50
2022-11-13T15:47:52.215Z,102233.16
2022-11-13T15:50:22.158Z,102239.28
2022-11-13T15:52:53.344Z,102241.25
2022-11-13T15:55:28.379Z,102238.38
2022-11-13T15:57:58.710Z,102240.16
2022-11-13T16:00:29.777Z,102243.50
2022-11-13T16:03:04.391Z,102237.38
2022-11-13T16:05:33.902Z,102231.09
2022-11-13T16:08:03.414Z,102228.75
2022-11-13T16:10:32.885Z,102224.50
2022-11-13T16:13:03.518Z,102228.75
2022-11-13T16:15:33.034Z,102225.16
2022-11-13T16:18:05.183Z,102228.19
2022-11-13T16:20:34.712Z,102222.94
2022-11-13T16:23:04.192Z,102226.72
2022-11-13T16:25:33.762Z,102217.88
2022-11-13T16:28:03.363Z,102215.88
2022-11-13T16:30:32.807Z,102215.97
2022-11-13T16:33:07.979Z,102218.63
2022-11-13T16:35:37.568Z,102220.75
2022-11-13T16:38:13.564Z,102217.44
2022-11-13T16:40:45.560Z,102209.28
2022-11-13T16:43:16.588Z,102210.53
2022-11-13T16:45:46.193Z,102213.84
2022-11-13T16:48:18.744Z,102197.81
2022-11-13T16:50:48.262Z,102202.56
2022-11-13T16:53:17.739Z,102201.00
2022-11-13T16:55:47.265Z,102196.31
2022-11-13T16:58:16.906Z,102197.00
2022-11-13T17:00:46.329Z,102189.13
2022-11-13T17:03:18.333Z,102183.88
2022-11-13T17:05:47.856Z,102184.78
2022-11-13T17:08:17.301Z,102187.22
2022-11-13T17:10:46.867Z,102183.88
2022-11-13T17:13:16.509Z,102172.66
2022-11-13T17:15:45.951Z,102170.78
2022-11-13T17:18:18.730Z,102166.53
2022-11-13T17:20:48.270Z,102157.38
2022-11-13T17:23:18.046Z,102165.88
2022-11-13T17:25:47.857Z,102146.06
2022-11-13T17:28:17.251Z,102144.41
2022-11-13T17:30:46.787Z,102142.13
2022-11-13T17:33:18.899Z,102140.13
2022-11-13T17:35:48.528Z,102130.06
2022-11-13T17:38:18.069Z,102130.84
2022-11-13T17:40:47.578Z,102114.19
2022-11-13T17:43:17.087Z,102112.41
2022-11-13T17:45:46.648Z,102103.81
2022-11-13T17:48:18.705Z,102092.16
2022-11-13T17:50:48.359Z,102091.59
2022-11-13T17:53:17.831Z,102071.69
2022-11-13T17:55:55.600Z,102065.88
2022-11-13T17:58:25.355Z,102054.75
2022-11-13T18:00:55.484Z,102042.09
2022-11-13T18:03:27.771Z,102037.75
2022-11-13T18:05:57.454Z,102027.25
2022-11-13T18:08:27.015Z,102022.31
2022-11-13T18:10:56.461Z,102018.50
2022-11-13T18:13:26.305Z,102009.03
2022-11-13T18:15:55.969Z,102007.44
2022-11-13T18:18:28.086Z,102000.09
2022-11-13T18:20:57.606Z,102005.09
2022-11-13T18:23:27.341Z,101999.28
2022-11-13T18:25:57.093Z,101998.53
2022-11-13T18:28:26.469Z,101993.59
2022-11-13T18:30:56.785Z,101998.88
2022-11-13T18:33:29.276Z,101998.97
2022-11-13T18:35:58.916Z,101994.06
2022-11-13T18:38:28.395Z,101994.84
2022-11-13T18:41:03.213Z,101995.94
2022-11-13T18:43:32.630Z,101993.06
2022-11-13T18:46:04.595Z,101996.41
2022-11-13T18:48:38.810Z,101989.91
2022-11-13T18:51:10.677Z,101992.28
2022-11-13T18:53:40.448Z,101992.16
2022-11-13T18:56:13.344Z,101990.50
2022-11-13T18:58:44.361Z,101987.47
2022-11-13T19:01:21.553Z,101992.69
2022-11-13T19:04:16.615Z,101984.56
2022-11-13T19:06:45.755Z,101993.59
2022-11-13T19:09:17.303Z,101986.81
2022-11-13T19:11:47.537Z,101986.00
2022-11-13T19:14:17.906Z,101983.66
2022-11-13T19:16:47.323Z,101976.72
2022-11-13T19:19:21.697Z,101989.69
2022-11-13T19:21:52.187Z,101987.00
2022-11-13T19:24:21.776Z,101990.38
2022-11-13T19:26:51.389Z,101993.84
2022-11-13T19:29:20.921Z,102002.31
2022-11-13T19:31:53.586Z,102009.16
2022-11-13T19:34:25.680Z,102013.38
2022-11-13T19:36:55.135Z,102013.63
2022-11-13T19:39:24.915Z,102022.31
2022-11-13T19:41:54.347Z,102026.66
2022-11-13T19:44:23.836Z,102028.00
2022-11-13T19:46:53.521Z,102031.25
2022-11-13T19:49:25.567Z,102031.25
2022-11-13T19:51:56.221Z,102044.00
2022-11-13T19:54:25.670Z,102045.78
2022-11-13T19:56:55.152Z,102057.06
2022-11-13T19:59:24.568Z,102051.13
2022-11-13T20:01:54.053Z,102056.06
2022-11-13T20:04:26.180Z,102060.09
2022-11-13T20:06:55.711Z,102061.75
2022-11-13T20:09:25.146Z,102059.97
2022-11-13T20:11:54.555Z,102062.53
2022-11-13T20:14:23.979Z,102067.78
2022-11-13T20:16:53.491Z,102062.78
2022-11-13T20:19:23.018Z,102061.09
2022-11-13T20:21:55.089Z,102064.44
2022-11-13T20:24:24.603Z,102071.25
2022-11-13T20:26:54.065Z,102065.91
2022-11-13T20:29:23.551Z,102071.25
2022-11-13T20:31:52.987Z,102073.94
2022-11-13T20:34:22.545Z,102074.06
2022-11-13T20:36:51.984Z,102073.28
2022-11-13T20:39:24.068Z,102064.56
2022-11-13T20:41:53.604Z,102062.66
2022-11-13T20:44:23.068Z,102068.66
2022-11-13T20:46:52.580Z,102067.00
2022-11-13T20:49:23.623Z,102063.13
2022-11-13T20:51:56.989Z,102059.63
2022-11-13T20:54:29.404Z,102059.63
2022-11-13T20:56:58.912Z,102063.00
2022-11-13T20:59:28.444Z,102064.66
2022-11-13T21:01:57.956Z,102065.22
2022-11-13T21:04:27.408Z,102057.31
2022-11-13T21:06:57.013Z,102064.00
2022-11-13T21:09:29.076Z,102066.09
2022-11-13T21:11:58.583Z,102064.56
2022-11-13T21:14:28.106Z,102072.38
2022-11-13T21:16:57.636Z,102064.31
2022-11-13T21:19:27.430Z,102070.50
2022-11-13T21:21:56.901Z,102066.34
2022-11-13T21:24:28.901Z,102059.63
2022-11-13T21:26:58.359Z,102060.31
2022-11-13T21:29:27.789Z,102049.81
2022-11-13T21:31:57.360Z,102050.16
2022-11-13T21:34:26.855Z,102045.78
2022-11-13T21:36:56.284Z,102048.91
2022-11-13T21:39:25.707Z,102043.09
2022-11-13T21:41:57.856Z,102038.63
2022-11-13T21:44:27.268Z,102032.69
2022-11-13T21:46:57.055Z,102029.25
2022-11-13T21:49:26.616Z,102026.81
2022-11-13T21:51:56.108Z,102019.19
2022-11-13T21:54:25.624Z,102018.84
2022-11-13T21:56:57.671Z,102015.50
2022-11-13T21:59:27.200Z,102007.91
2022-11-13T22:01:56.722Z,102009.81
2022-11-13T22:04:26.236Z,102012.94
2022-11-13T22:06:55.952Z,102007.78
2022-11-13T22:09:27.295Z,101997.09
2022-11-13T22:11:59.339Z,101996.19
2022-11-13T22:14:28.829Z,101986.00
2022-11-13T22:16:58.322Z,101982.97
2022-11-13T22:19:31.099Z,101991.47
2022-11-13T22:22:03.146Z,101991.22
2022-11-13T22:24:32.677Z,101991.22
2022-11-13T22:27:04.746Z,101991.56
2022-11-13T22:29:34.151Z,101981.84
2022-11-13T22:32:03.701Z,101981.84
2022-11-13T22:34:33.172Z,101980.31
2022-11-13T22:37:02.752Z,101984.53
2022-11-13T22:39:32.309Z,101975.38
2022-11-13T22:42:04.381Z,101987.88
2022-11-13T22:44:54.289Z,101982.63
2022-11-13T22:47:23.342Z,101972.25
2022-11-13T22:49:52.840Z,101973.84
2022-11-13T22:52:22.363Z,101970.38
2022-11-13T22:54:51.860Z,101963.91
2022-11-13T22:57:23.904Z,101971.50
2022-11-13T22:59:53.405Z,101977.19
2022-11-13T23:02:22.901Z,101964.91
2022-11-13T23:04:52.328Z,101963.34
2022-11-13T23:07:21.907Z,101953.97
2022-11-13T23:09:51.441Z,101953.28
2022-11-13T23:12:21.020Z,101942.56
2022-11-13T23:14:53.019Z,101938.34
2022-11-13T23:17:22.516Z,101933.66
2022-11-13T23:19:52.116Z,101933.25
2022-11-13T23:22:21.515Z,101932.91
2022-11-13T23:24:50.940Z,101919.97
2022-11-13T23:27:20.421Z,101932.13
2022-11-13T23:29:50.420Z,101918.09
2022-11-13T23:32:22.625Z,101927.72
2022-11-13T23:34:59.312Z,101933.50
2022-11-13T23:37:29.428Z,101926.69
2022-11-13T23:39:58.917Z,101924.00
2022-11-13T23:42:53.668Z,101915.88
2022-11-13T23:45:18.417Z,101917.75
2022-11-13T23:47:50.498Z,101913.97
2022-11-13T23:50:20.096Z,101904.13
2022-11-13T23:52:50.308Z,101894.75
2022-11-13T23:55:21.254Z,101896.44
2022-11-13T23:57:51.026Z,101899.91
